Time;durP1;ratioP1;P1;durP2;ratioP2;P2;SDS_P1;SDS_P2;PMS_P1;PMS_P2;Temp;Humidity;BMP_temperature;BMP_pressure;BME280_temperature;BME280_humidity;BME280_pressure;Samples;Min_cycle;Max_cycle;Signal;HPM_P1;HPM_P2
2022/03/13 00:00:54;;;;;;;188.07;80.22;;;;;;;-3.34;47.99;101523.75;1690660;84;25600;-74
2022/03/13 00:03:23;;;;;;;208.93;84.70;;;;;;;-3.43;48.23;101516.94;1644910;87;25991;-74
2022/03/13 00:05:51;;;;;;;218.27;90.90;;;;;;;-3.45;48.43;101517.64;1645174;87;25666;-74
2022/03/13 00:08:33;;;;;;;219.68;86.50;;;;;;;-3.50;48.73;101515.54;1644771;87;27312;-74
2022/03/13 00:11:07;;;;;;;190.77;79.47;;;;;;;-3.54;48.96;101510.80;1644992;87;25332;-74
2022/03/13 00:13:39;;;;;;;196.85;80.12;;;;;;;-3.58;48.92;101506.38;1644691;87;25336;-73
2022/03/13 00:16:08;;;;;;;193.07;78.05;;;;;;;-3.59;48.83;101506.89;1645109;87;26468;-73
2022/03/13 00:18:44;;;;;;;192.20;76.85;;;;;;;-3.63;48.86;101502.96;1645525;87;25532;-73
2022/03/13 00:21:10;;;;;;;188.03;76.12;;;;;;;-3.62;48.94;101505.13;1644766;87;27404;-74
2022/03/13 00:23:37;;;;;;;191.15;72.92;;;;;;;-3.61;49.05;101508.07;1645358;87;25656;-74
2022/03/13 00:26:04;;;;;;;176.53;70.17;;;;;;;-3.65;48.95;101504.98;1645148;86;25769;-74
2022/03/13 00:28:31;;;;;;;188.78;76.60;;;;;;;-3.68;48.93;101502.70;1644812;87;26074;-73
2022/03/13 00:30:57;;;;;;;190.05;69.65;;;;;;;-3.70;48.96;101498.61;1644754;86;25679;-75
2022/03/13 00:33:24;;;;;;;183.22;70.85;;;;;;;-3.72;48.96;101496.66;1645082;87;27345;-74
2022/03/13 00:35:50;;;;;;;188.68;73.28;;;;;;;-3.77;48.90;101501.98;1644709;87;25684;-73
2022/03/13 00:38:19;;;;;;;182.43;72.47;;;;;;;-3.79;49.08;101504.51;1683044;84;25504;-74
2022/03/13 00:40:51;;;;;;;178.25;68.92;;;;;;;-3.81;49.13;101505.20;1691007;84;26096;-74
2022/03/13 00:43:14;;;;;;;176.23;68.37;;;;;;;-3.87;49.18;101500.12;1691824;83;25701;-74
2022/03/13 00:45:40;;;;;;;184.82;74.82;;;;;;;-3.86;49.22;101510.22;1690527;84;27331;-74
2022/03/13 00:48:07;;;;;;;159.10;68.15;;;;;;;-3.90;49.26;101501.80;1690759;84;25659;-73
2022/03/13 00:50:34;;;;;;;174.30;72.90;;;;;;;-3.90;48.96;101499.67;1690784;84;25602;-73
2022/03/13 00:53:00;;;;;;;155.40;64.25;;;;;;;-3.92;49.37;101494.56;1690528;84;25998;-73
2022/03/13 00:55:26;;;;;;;168.43;70.72;;;;;;;-3.94;49.42;101502.67;1690894;84;25595;-74
2022/03/13 00:57:54;;;;;;;155.12;63.08;;;;;;;-3.93;49.14;101503.52;1690736;84;27880;-73
2022/03/13 01:00:21;;;;;;;153.65;64.87;;;;;;;-3.94;49.04;101499.22;1690560;84;25636;-72
2022/03/13 01:02:48;;;;;;;165.82;68.22;;;;;;;-3.95;49.10;101493.61;1690702;84;25656;-73
2022/03/13 01:05:24;;;;;;;172.85;70.85;;;;;;;-3.98;49.64;101493.48;1690693;82;25598;-73
2022/03/13 01:07:52;;;;;;;164.22;65.37;;;;;;;-3.99;49.86;101494.48;1690568;84;25575;-73
2022/03/13 01:10:19;;;;;;;164.50;67.75;;;;;;;-4.04;49.84;101488.92;1690781;84;27291;-73
2022/03/13 01:12:48;;;;;;;164.28;64.90;;;;;;;-4.09;49.97;101486.52;1690581;84;25698;-73
2022/03/13 01:15:15;;;;;;;155.70;64.57;;;;;;;-4.15;50.12;101486.24;1690905;84;25523;-73
2022/03/13 01:17:43;;;;;;;163.85;67.53;;;;;;;-4.18;50.26;101483.95;1690902;84;25931;-74
2022/03/13 01:20:19;;;;;;;158.37;69.20;;;;;;;-4.20;50.08;101485.97;1690846;84;25550;-74
2022/03/13 01:22:45;;;;;;;176.15;71.82;;;;;;;-4.19;49.76;101473.56;1690563;84;27323;-74
2022/03/13 01:25:13;;;;;;;177.75;70.35;;;;;;;-4.21;50.11;101476.39;1690746;84;25534;-73
2022/03/13 01:27:40;;;;;;;172.90;64.37;;;;;;;-4.24;50.14;101485.19;1690695;84;25678;-74
2022/03/13 01:30:08;;;;;;;167.50;64.65;;;;;;;-4.26;50.39;101482.72;1690602;84;25957;-73
2022/03/13 01:32:36;;;;;;;176.00;69.77;;;;;;;-4.27;50.49;101477.13;1691068;84;25502;-73
2022/03/13 01:35:04;;;;;;;156.22;64.32;;;;;;;-4.31;50.91;101474.52;1691017;84;27989;-73
2022/03/13 01:37:34;;;;;;;158.18;63.23;;;;;;;-4.35;51.00;101467.97;1690980;84;25765;-73
2022/03/13 01:40:06;;;;;;;162.53;63.45;;;;;;;-4.38;51.24;101474.42;1691131;84;25678;-73
2022/03/13 01:42:32;;;;;;;158.18;62.20;;;;;;;-4.41;51.35;101470.00;1691117;83;26034;-73
2022/03/13 01:44:59;;;;;;;177.68;67.95;;;;;;;-4.44;51.43;101469.03;1691084;84;25618;-73
2022/03/13 01:47:26;;;;;;;161.82;61.35;;;;;;;-4.46;51.51;101473.20;1691050;84;27304;-72
2022/03/13 01:49:52;;;;;;;160.60;58.73;;;;;;;-4.46;51.69;101476.33;1674840;84;25623;-72
2022/03/13 01:52:26;;;;;;;160.05;56.15;;;;;;;-4.48;51.65;101469.90;1691060;84;25439;-76
2022/03/13 01:54:55;;;;;;;161.18;61.98;;;;;;;-4.48;51.78;101475.69;1691061;84;26033;-75
2022/03/13 01:57:23;;;;;;;183.55;69.75;;;;;;;-4.51;51.78;101474.25;1691470;84;25562;-74
2022/03/13 01:59:54;;;;;;;186.82;71.77;;;;;;;-4.54;51.94;101468.80;1692422;84;27371;-74
2022/03/13 02:02:22;;;;;;;175.15;66.07;;;;;;;-4.54;52.04;101476.73;1691484;84;25416;-74
2022/03/13 02:04:53;;;;;;;181.32;68.83;;;;;;;-4.58;52.10;101481.22;1691053;84;25500;-74
2022/03/13 02:07:22;;;;;;;176.40;64.72;;;;;;;-4.60;52.15;101477.95;1693421;84;25983;-73
2022/03/13 02:09:48;;;;;;;170.30;61.88;;;;;;;-4.64;52.36;101476.67;1694150;84;25627;-75
2022/03/13 02:12:18;;;;;;;180.85;68.67;;;;;;;-4.69;52.23;101471.92;1693997;84;27114;-75
2022/03/13 02:14:45;;;;;;;172.78;65.83;;;;;;;-4.69;52.30;101482.48;1693902;84;25527;-75
2022/03/13 02:17:11;;;;;;;141.95;56.45;;;;;;;-4.73;52.45;101480.70;1670031;84;25628;-75
2022/03/13 02:19:37;;;;;;;153.35;56.88;;;;;;;-4.72;52.43;101472.27;1693957;84;26098;-75
2022/03/13 02:22:05;;;;;;;145.80;55.23;;;;;;;-4.70;52.66;101482.16;1694030;84;25441;-75
2022/03/13 02:24:31;;;;;;;166.68;59.03;;;;;;;-4.69;52.96;101484.61;1694081;84;27965;-75
2022/03/13 02:27:05;;;;;;;159.87;61.73;;;;;;;-4.64;53.21;101484.59;1694060;84;25452;-74
2022/03/13 02:29:33;;;;;;;154.38;61.05;;;;;;;-4.62;53.54;101486.55;1694215;84;25629;-74
2022/03/13 02:32:01;;;;;;;141.15;53.48;;;;;;;-4.58;53.91;101488.66;1694115;84;25925;-73
2022/03/13 02:34:28;;;;;;;137.82;50.28;;;;;;;-4.53;53.81;101492.91;1670399;84;25680;-74
2022/03/13 02:37:03;;;;;;;146.45;58.33;;;;;;;-4.45;53.94;101492.50;1694119;84;28056;-74
2022/03/13 02:39:37;;;;;;;142.70;53.55;;;;;;;-4.37;53.62;101484.50;1694026;84;25608;-74
2022/03/13 02:42:06;;;;;;;134.35;55.85;;;;;;;-4.26;53.50;101485.88;1694153;84;25442;-73
2022/03/13 02:44:33;;;;;;;;;;;;;;;-4.17;53.77;101485.61;1696627;84;25960;-73
2022/03/13 02:47:03;;;;;;;119.35;49.70;;;;;;;-4.07;53.96;101484.50;1694224;84;25469;-73
2022/03/13 02:49:32;;;;;;;136.97;50.73;;;;;;;-3.98;54.14;101479.45;1694151;84;27311;-73
2022/03/13 02:52:04;;;;;;;120.42;51.28;;;;;;;-3.90;54.08;101475.38;1694161;84;25461;-73
2022/03/13 02:54:30;;;;;;;140.45;53.68;;;;;;;-3.80;53.69;101479.91;1694266;84;25603;-73
2022/03/13 02:56:58;;;;;;;136.28;52.73;;;;;;;-3.70;53.89;101472.98;1694110;84;25973;-73
2022/03/13 02:59:25;;;;;;;130.15;49.73;;;;;;;-3.61;53.82;101477.66;1694193;84;25599;-73
2022/03/13 03:01:53;;;;;;;135.30;53.92;;;;;;;-3.53;53.61;101472.77;1694112;84;28033;-73
2022/03/13 03:04:25;;;;;;;128.82;54.15;;;;;;;-3.43;53.73;101474.10;1694068;84;25401;-73
2022/03/13 03:07:03;;;;;;;157.95;66.75;;;;;;;-3.33;53.51;101472.99;1692602;84;25595;-73
2022/03/13 03:09:32;;;;;;;139.77;55.95;;;;;;;-3.25;53.17;101473.69;1690790;83;26129;-74
2022/03/13 03:12:01;;;;;;;130.72;55.00;;;;;;;-3.19;53.12;101467.63;1691165;84;25599;-73
2022/03/13 03:14:29;;;;;;;;;;;;;;;-3.11;53.17;101471.98;1693656;84;27868;-73
2022/03/13 03:16:55;;;;;;;128.93;57.03;;;;;;;-3.07;53.39;101470.59;1691069;84;25665;-73
2022/03/13 03:19:22;;;;;;;154.12;64.37;;;;;;;-3.00;53.33;101469.33;1691091;84;25731;-73
2022/03/13 03:21:49;;;;;;;160.57;63.25;;;;;;;-2.96;53.40;101470.61;1691109;84;25928;-73
2022/03/13 03:24:23;;;;;;;157.22;64.80;;;;;;;-2.91;53.47;101464.23;1691143;84;25481;-73
2022/03/13 03:26:50;;;;;;;148.87;59.65;;;;;;;-2.86;53.47;101466.28;1691156;84;27395;-74
2022/03/13 03:29:17;;;;;;;178.40;71.67;;;;;;;-2.83;53.20;101468.08;1691021;84;25675;-74
2022/03/13 03:31:49;;;;;;;171.72;68.78;;;;;;;-2.78;52.88;101470.13;1691113;84;25400;-74
2022/03/13 03:34:20;;;;;;;159.35;64.45;;;;;;;-2.75;53.06;101464.45;1691082;84;25936;-74
2022/03/13 03:36:55;;;;;;;175.65;69.82;;;;;;;-2.73;53.09;101471.70;1691164;84;25179;-74
2022/03/13 03:39:23;;;;;;;168.25;67.12;;;;;;;-2.71;52.86;101474.97;1690515;84;27333;-74
2022/03/13 03:41:52;;;;;;;176.37;70.78;;;;;;;-2.69;52.89;101476.09;1691026;84;25435;-74
2022/03/13 03:44:19;;;;;;;163.10;65.78;;;;;;;-2.70;52.47;101465.21;1691137;84;25551;-74
2022/03/13 03:46:47;;;;;;;168.43;69.27;;;;;;;-2.68;52.53;101464.51;1691072;84;26451;-73
2022/03/13 03:49:16;;;;;;;184.05;71.55;;;;;;;-2.68;52.83;101467.16;1691131;84;25474;-73
2022/03/13 03:51:43;;;;;;;177.38;69.85;;;;;;;-2.69;52.89;101461.05;1691100;84;27390;-73
2022/03/13 03:54:11;;;;;;;150.18;61.92;;;;;;;-2.68;52.62;101463.99;1691027;84;25568;-73
2022/03/13 03:56:37;;;;;;;159.75;67.62;;;;;;;-2.67;52.82;101462.99;1691193;84;25522;-74
2022/03/13 03:59:05;;;;;;;177.00;68.20;;;;;;;-2.65;52.65;101465.45;1690995;84;25874;-73
2022/03/13 04:01:43;;;;;;;165.85;66.77;;;;;;;-2.61;52.69;101466.70;1691145;84;25589;-73
2022/03/13 04:04:10;;;;;;;161.05;70.72;;;;;;;-2.59;53.13;101463.34;1691123;84;27313;-75
2022/03/13 04:06:38;;;;;;;156.37;68.47;;;;;;;-2.57;53.34;101463.15;1690955;84;25544;-74
2022/03/13 04:09:10;;;;;;;156.63;68.12;;;;;;;-2.56;53.15;101452.88;1691126;84;25604;-75
2022/03/13 04:11:38;;;;;;;159.40;63.13;;;;;;;-2.55;53.00;101457.17;1691072;84;25974;-74
2022/03/13 04:14:05;;;;;;;183.78;76.42;;;;;;;-2.55;53.27;101467.77;1691076;84;25464;-74
2022/03/13 04:16:31;;;;;;;173.95;75.40;;;;;;;-2.58;53.38;101466.83;1691107;84;27943;-75
2022/03/13 04:18:57;;;;;;;201.20;76.80;;;;;;;-2.61;53.19;101471.99;1691006;84;25638;-74
2022/03/13 04:21:24;;;;;;;180.48;71.30;;;;;;;-2.65;53.40;101471.56;1691063;84;25529;-74
2022/03/13 04:23:53;;;;;;;164.47;67.85;;;;;;;-2.70;53.53;101471.31;1691041;84;25933;-74
2022/03/13 04:26:25;;;;;;;161.47;69.07;;;;;;;-2.75;53.34;101466.29;1691088;84;25424;-74
2022/03/13 04:28:49;;;;;;;;;;;;;;;-2.79;53.25;101461.89;1693318;83;28095;-74
2022/03/13 04:31:18;;;;;;;164.60;65.80;;;;;;;-2.82;53.31;101460.94;1690998;84;25602;-74
2022/03/13 04:33:45;;;;;;;181.28;72.05;;;;;;;-2.88;52.97;101459.88;1691327;84;25533;-74
2022/03/13 04:36:13;;;;;;;180.03;69.62;;;;;;;-2.94;53.33;101454.02;1691066;84;25972;-74
2022/03/13 04:38:41;;;;;;;165.57;70.15;;;;;;;-3.03;53.28;101453.33;1691112;84;25542;-74
2022/03/13 04:41:08;;;;;;;166.60;69.05;;;;;;;-3.09;53.38;101458.56;1691038;84;28273;-74
2022/03/13 04:43:34;;;;;;;166.65;67.30;;;;;;;-3.24;53.65;101454.14;1690999;84;25614;-74
2022/03/13 04:46:00;;;;;;;153.78;66.35;;;;;;;-3.28;53.61;101466.63;1691046;84;25561;-74
2022/03/13 04:48:27;;;;;;;161.75;64.03;;;;;;;-3.39;53.89;101468.77;1691190;84;25937;-74
2022/03/13 04:50:53;;;;;;;160.10;66.77;;;;;;;-3.46;54.07;101472.33;1691268;84;25602;-73
2022/03/13 04:53:20;;;;;;;163.87;66.90;;;;;;;-3.52;54.19;101479.20;1691088;84;27441;-73
2022/03/13 04:55:46;;;;;;;154.80;60.60;;;;;;;-3.57;54.11;101477.61;1691016;84;25399;-73
2022/03/13 04:58:12;;;;;;;161.32;66.22;;;;;;;-3.64;54.48;101476.22;1722663;83;25665;-73
2022/03/13 05:00:39;;;;;;;160.20;65.32;;;;;;;-3.68;54.54;101476.77;1691001;84;26639;-73
2022/03/13 05:03:08;;;;;;;148.55;60.05;;;;;;;-3.70;54.65;101477.45;1691131;84;25600;-73
2022/03/13 05:05:34;;;;;;;160.07;66.47;;;;;;;-3.74;54.99;101472.23;1691100;84;27955;-73
2022/03/13 05:08:04;;;;;;;154.47;67.35;;;;;;;-3.77;55.09;101480.83;1692953;84;25698;-73
2022/03/13 05:10:36;;;;;;;156.67;63.30;;;;;;;-3.80;55.42;101478.58;1694159;84;25501;-73
2022/03/13 05:13:05;;;;;;;157.95;60.28;;;;;;;-3.83;55.91;101480.74;1694152;84;25989;-73
2022/03/13 05:15:33;;;;;;;159.97;69.42;;;;;;;-3.85;55.71;101477.47;1694311;84;32778;-73
2022/03/13 05:18:00;;;;;;;159.05;60.33;;;;;;;-3.86;55.76;101477.98;1694260;84;28122;-73
2022/03/13 05:20:27;;;;;;;141.20;57.60;;;;;;;-3.87;56.08;101477.66;1694238;84;25466;-73
2022/03/13 05:22:55;;;;;;;139.90;59.18;;;;;;;-3.88;56.17;101475.19;1694310;84;25414;-74
2022/03/13 05:25:25;;;;;;;156.65;65.37;;;;;;;-3.88;56.29;101476.03;1694218;84;25921;-73
2022/03/13 05:27:52;;;;;;;163.20;68.97;;;;;;;-3.87;56.32;101475.52;1694236;84;25644;-74
2022/03/13 05:30:20;;;;;;;151.57;66.85;;;;;;;-3.86;56.43;101481.95;1694282;84;27346;-74
2022/03/13 05:32:48;;;;;;;163.00;66.33;;;;;;;-3.84;56.17;101482.58;1694134;84;25630;-74
2022/03/13 05:35:16;;;;;;;114.00;47.65;;;;;;;-3.82;56.54;101480.56;1694318;84;25619;-74
2022/03/13 05:37:46;;;;;;;160.20;62.60;;;;;;;-3.79;56.47;101489.97;1693957;84;25981;-74
2022/03/13 05:40:15;;;;;;;148.02;59.90;;;;;;;-3.72;56.26;101485.58;1694026;84;25682;-74
2022/03/13 05:42:45;;;;;;;144.75;61.00;;;;;;;-3.66;56.57;101491.94;1694246;84;27273;-75
2022/03/13 05:45:15;;;;;;;145.92;59.00;;;;;;;-3.58;56.61;101494.48;1693977;84;25622;-75
2022/03/13 05:47:48;;;;;;;141.97;58.80;;;;;;;-3.49;56.69;101498.67;1694056;84;25487;-74
2022/03/13 05:50:17;;;;;;;150.50;62.62;;;;;;;-3.36;56.91;101500.63;1694020;84;25907;-74
2022/03/13 05:52:45;;;;;;;154.85;60.98;;;;;;;-3.23;57.19;101499.45;1694172;84;25614;-75
2022/03/13 05:55:14;;;;;;;138.12;57.17;;;;;;;-3.08;57.35;101500.73;1694006;84;27403;-75
2022/03/13 05:57:41;;;;;;;144.80;57.88;;;;;;;-2.93;57.49;101505.13;1693851;84;25708;-75
2022/03/13 06:00:12;;;;;;;136.90;58.35;;;;;;;-2.77;57.55;101502.75;1694009;84;25553;-74
2022/03/13 06:02:39;;;;;;;145.72;60.38;;;;;;;-2.59;57.65;101506.24;1694029;84;25927;-74
2022/03/13 06:05:10;;;;;;;138.60;62.08;;;;;;;-2.39;57.71;101497.94;1694197;84;25457;-74
2022/03/13 06:07:38;;;;;;;149.60;54.70;;;;;;;-2.18;57.65;101501.53;1693051;84;27398;-74
2022/03/13 06:10:06;;;;;;;150.07;65.50;;;;;;;-1.97;57.45;101498.00;1690964;84;25608;-74
2022/03/13 06:12:34;;;;;;;148.43;61.02;;;;;;;-1.76;57.23;101494.42;1691048;84;25633;-74
2022/03/13 06:15:06;;;;;;;197.93;83.52;;;;;;;-1.58;57.19;101492.05;1690971;84;26130;-74
2022/03/13 06:17:44;;;;;;;169.28;70.65;;;;;;;-1.34;57.13;101498.66;1691074;84;25759;-74
2022/03/13 06:20:13;;;;;;;177.22;75.47;;;;;;;-1.09;56.85;101494.63;1691007;84;27399;-74
2022/03/13 06:22:42;;;;;;;158.87;69.50;;;;;;;-0.81;57.08;101505.09;1691191;84;25774;-74
2022/03/13 06:25:11;;;;;;;139.97;59.50;;;;;;;-0.50;56.94;101503.66;1691162;84;25462;-75
2022/03/13 06:27:39;;;;;;;148.13;63.02;;;;;;;-0.19;56.36;101504.33;1691106;84;26057;-75
2022/03/13 06:30:12;;;;;;;142.00;64.25;;;;;;;0.15;56.04;101505.06;1691033;84;25570;-75
2022/03/13 06:32:42;;;;;;;137.82;62.83;;;;;;;0.47;55.51;101505.16;1691132;83;27396;-74
2022/03/13 06:35:10;;;;;;;132.47;58.15;;;;;;;0.89;55.24;101516.21;1690975;84;25596;-74
2022/03/13 06:37:41;;;;;;;129.07;59.93;;;;;;;1.24;54.32;101508.59;1691170;84;25586;-74
2022/03/13 06:40:12;;;;;;;130.32;60.67;;;;;;;1.67;53.98;101509.15;1675031;84;25940;-74
2022/03/13 06:42:39;;;;;;;142.35;63.23;;;;;;;2.09;53.30;101507.70;1689022;84;25630;-74
2022/03/13 06:45:10;;;;;;;177.68;80.57;;;;;;;2.47;52.33;101500.80;1691288;84;27848;-74
2022/03/13 06:47:35;;;;;;;192.60;89.80;;;;;;;2.85;51.51;101505.00;1691898;83;25549;-74
2022/03/13 06:50:02;;;;;;;118.72;55.20;;;;;;;3.26;50.97;101507.36;1723001;83;25584;-74
2022/03/13 06:52:29;;;;;;;110.22;51.00;;;;;;;3.62;49.58;101510.08;1691184;84;26689;-75
2022/03/13 06:54:55;;;;;;;103.02;49.95;;;;;;;3.96;48.29;101512.44;1691201;84;25495;-73
2022/03/13 06:57:21;;;;;;;110.00;49.98;;;;;;;4.30;47.43;101524.14;1691163;84;27323;-74
2022/03/13 06:59:48;;;;;;;112.15;51.05;;;;;;;4.68;46.96;101519.25;1691038;84;25712;-74
2022/03/13 07:02:14;;;;;;;111.08;49.40;;;;;;;5.09;46.18;101520.02;1691108;84;25389;-74
2022/03/13 07:04:42;;;;;;;99.83;47.58;;;;;;;5.49;44.79;101529.77;1691218;84;25583;-74
2022/03/13 07:07:10;;;;;;;104.58;49.67;;;;;;;5.76;44.14;101527.77;1691153;84;25259;-74
2022/03/13 07:09:37;;;;;;;110.03;51.75;;;;;;;6.12;43.72;101535.81;1694221;84;27331;-73
2022/03/13 07:12:05;;;;;;;114.10;51.90;;;;;;;6.49;42.69;101540.58;1694138;84;25664;-74
2022/03/13 07:14:32;;;;;;;110.05;51.75;;;;;;;6.80;42.04;101535.55;1694282;84;25408;-74
2022/03/13 07:17:04;;;;;;;116.57;66.12;;;;;;;7.08;41.15;101535.84;1694500;84;25956;-74
2022/03/13 07:19:30;;;;;;;157.30;117.47;;;;;;;7.41;40.61;101537.99;1690949;84;25459;-74
2022/03/13 07:21:57;;;;;;;96.05;49.45;;;;;;;7.71;39.80;101540.62;1649420;86;27398;-73
2022/03/13 07:24:24;;;;;;;101.82;50.43;;;;;;;8.09;39.40;101537.88;1647356;86;25594;-74
2022/03/13 07:26:50;;;;;;;95.07;48.17;;;;;;;8.48;39.16;101537.55;1654013;85;25577;-74
2022/03/13 07:29:17;;;;;;;116.85;53.60;;;;;;;8.86;37.89;101535.52;1656893;86;26573;-74
2022/03/13 07:31:43;;;;;;;98.22;47.83;;;;;;;9.10;37.66;101540.67;1655485;85;25441;-74
2022/03/13 07:34:10;;;;;;;94.65;47.58;;;;;;;9.46;37.18;101539.88;1655387;86;27974;-74
2022/03/13 07:36:37;;;;;;;92.20;46.20;;;;;;;9.77;36.80;101548.75;1648057;85;25696;-75
2022/03/13 07:39:04;;;;;;;126.12;106.25;;;;;;;10.09;36.27;101550.31;1647121;87;25585;-75
2022/03/13 07:41:30;;;;;;;99.90;50.63;;;;;;;10.40;35.98;101544.31;1646977;87;25890;-76
2022/03/13 07:43:59;;;;;;;92.10;47.17;;;;;;;10.77;35.54;101549.79;1646999;87;25448;-75
2022/03/13 07:46:27;;;;;;;89.60;46.05;;;;;;;11.14;34.85;101545.77;1647101;87;27339;-75
2022/03/13 07:48:55;;;;;;;85.55;43.60;;;;;;;11.44;34.14;101547.99;1611149;89;25751;-75
2022/03/13 07:51:24;;;;;;;80.62;41.13;;;;;;;11.75;33.65;101545.00;1610745;89;25578;-74
2022/03/13 07:53:50;;;;;;;85.40;44.55;;;;;;;12.28;32.99;101555.03;1610738;89;26005;-74
2022/03/13 07:56:16;;;;;;;89.70;44.25;;;;;;;12.87;31.78;101549.65;1610728;89;25724;-74
2022/03/13 07:58:42;;;;;;;82.33;43.35;;;;;;;13.50;31.15;101550.34;1610720;89;27144;-75
2022/03/13 08:01:09;;;;;;;141.50;127.12;;;;;;;14.16;30.60;101553.73;1610610;89;25703;-75
2022/03/13 08:03:36;;;;;;;70.90;40.43;;;;;;;14.94;30.07;101551.58;1610695;89;25615;-75
2022/03/13 08:06:03;;;;;;;71.80;41.65;;;;;;;15.57;29.13;101542.96;1610160;89;25988;-75
2022/03/13 08:08:31;;;;;;;85.92;73.62;;;;;;;16.18;28.66;101543.83;1613035;88;25694;-75
2022/03/13 08:10:58;;;;;;;69.85;38.98;;;;;;;16.37;27.53;101538.89;1616354;86;27334;-77
2022/03/13 08:13:24;;;;;;;83.07;69.75;;;;;;;16.48;27.14;101542.14;1622112;86;25930;-75
2022/03/13 08:15:51;;;;;;;65.95;39.67;;;;;;;16.54;27.02;101544.95;1600610;89;25474;-75
2022/03/13 08:18:17;;;;;;;116.28;105.10;;;;;;;16.46;26.96;101537.54;1601052;89;25934;-75
2022/03/13 08:20:44;;;;;;;63.02;35.92;;;;;;;16.54;26.98;101544.16;1636714;87;25453;-75
2022/03/13 08:23:10;;;;;;;57.08;35.52;;;;;;;16.71;27.03;101542.01;1645207;87;27385;-76
2022/03/13 08:25:36;;;;;;;58.55;35.00;;;;;;;16.38;26.38;101538.35;1645113;87;25756;-76
2022/03/13 08:28:03;;;;;;;54.48;35.25;;;;;;;16.60;26.39;101545.59;1645365;87;25593;-77
2022/03/13 08:30:29;;;;;;;53.45;33.58;;;;;;;16.72;26.31;101547.16;1645270;87;26005;-77
2022/03/13 08:32:56;;;;;;;45.95;29.80;;;;;;;16.88;25.76;101542.04;1647482;85;25483;-77
2022/03/13 08:35:22;;;;;;;55.95;31.52;;;;;;;16.75;25.63;101543.79;1622713;87;27470;-76
2022/03/13 08:37:50;;;;;;;64.90;57.93;;;;;;;16.94;25.93;101540.77;1622598;87;25536;-75
2022/03/13 08:40:16;;;;;;;46.08;33.70;;;;;;;17.32;25.64;101544.18;1645299;86;25637;-75
2022/03/13 08:42:43;;;;;;;42.30;27.22;;;;;;;17.74;25.67;101543.58;1645535;86;25984;-73
2022/03/13 08:45:11;;;;;;;41.02;25.95;;;;;;;18.04;25.12;101548.56;1645542;86;25439;-76
2022/03/13 08:47:43;;;;;;;40.50;27.50;;;;;;;18.71;25.19;101551.58;1646507;87;27378;-75
2022/03/13 08:50:16;;;;;;;57.95;51.42;;;;;;;19.76;24.46;101543.77;1645811;87;25478;-76
2022/03/13 08:52:43;;;;;;;34.35;23.75;;;;;;;20.45;23.80;101542.59;1645355;87;25396;-76
2022/03/13 08:55:14;;;;;;;38.50;23.65;;;;;;;20.36;22.77;101548.81;1645234;86;25972;-75
2022/03/13 08:57:41;;;;;;;71.77;65.15;;;;;;;20.48;23.08;101546.03;1622585;87;25481;-77
2022/03/13 09:00:29;;;;;;;37.63;23.57;;;;;;;20.69;23.06;101542.59;1645414;86;27290;-76
2022/03/13 09:02:56;;;;;;;40.95;25.37;;;;;;;20.98;22.88;101539.88;1691955;83;25549;-76
2022/03/13 09:05:23;;;;;;;40.00;27.32;;;;;;;21.23;22.54;101541.38;1693193;84;25745;-73
2022/03/13 09:07:49;;;;;;;34.53;25.85;;;;;;;21.43;22.33;101548.36;1693057;84;25923;-75
2022/03/13 09:10:16;;;;;;;33.33;24.90;;;;;;;21.48;21.58;101546.75;1683377;84;25587;-75
2022/03/13 09:12:43;;;;;;;32.48;21.73;;;;;;;21.40;21.46;101541.63;1693004;84;27388;-75
2022/03/13 09:15:09;;;;;;;30.32;22.62;;;;;;;21.42;21.30;101538.52;1693056;84;25640;-75
2022/03/13 09:17:36;;;;;;;27.58;19.40;;;;;;;21.57;21.37;101533.64;1693507;84;25498;-76
2022/03/13 09:20:04;;;;;;;26.05;19.02;;;;;;;21.73;21.42;101545.23;1693067;84;25983;-76
2022/03/13 09:22:31;;;;;;;30.32;19.25;;;;;;;21.96;21.38;101544.84;1693158;84;25690;-76
2022/03/13 09:25:00;;;;;;;31.00;20.05;;;;;;;22.11;21.16;101544.58;1693227;84;27385;-77
2022/03/13 09:27:28;;;;;;;32.67;21.07;;;;;;;22.42;20.99;101541.56;1669247;84;25867;-76
2022/03/13 09:29:57;;;;;;;33.73;22.02;;;;;;;22.45;20.59;101540.06;1690628;83;41408;-76
2022/03/13 09:32:24;;;;;;;;;;;;;;;22.62;20.69;101546.54;1695254;84;25931;-76
2022/03/13 09:34:51;;;;;;;25.88;18.30;;;;;;;22.94;20.46;101550.55;1686702;84;25703;-76
2022/03/13 09:37:18;;;;;;;31.45;18.87;;;;;;;23.10;20.22;101551.87;1671153;83;27293;-72
2022/03/13 09:39:45;;;;;;;24.15;19.25;;;;;;;22.96;20.03;101555.13;1718828;82;26012;-75
2022/03/13 09:42:11;;;;;;;25.92;17.32;;;;;;;22.55;20.02;101545.02;1749985;81;25741;-75
2022/03/13 09:44:37;;;;;;;27.37;18.90;;;;;;;22.25;19.96;101544.70;1730081;82;25946;-76
2022/03/13 09:47:05;;;;;;;23.22;16.52;;;;;;;21.64;19.91;101548.17;1748120;82;25609;-76
2022/03/13 09:49:32;;;;;;;22.00;16.77;;;;;;;20.98;19.79;101546.17;1747523;81;27317;-76
2022/03/13 09:51:59;;;;;;;22.30;16.75;;;;;;;20.35;20.23;101548.02;1747623;81;25850;-76
2022/03/13 09:54:26;;;;;;;20.30;15.85;;;;;;;19.91;20.83;101562.31;1747610;82;25413;-76
2022/03/13 09:56:52;;;;;;;19.90;15.15;;;;;;;19.87;21.41;101546.30;1747516;81;25924;-76
2022/03/13 09:59:19;;;;;;;19.45;14.38;;;;;;;20.01;21.63;101553.41;1747464;82;25559;-76
2022/03/13 10:01:45;;;;;;;17.62;13.25;;;;;;;20.09;21.60;101546.98;1745422;81;28029;-76
2022/03/13 10:04:12;;;;;;;16.97;13.00;;;;;;;20.06;21.55;101543.58;1743228;82;25658;-75
2022/03/13 10:07:09;;;;;;;16.55;12.13;;;;;;;20.06;21.66;101549.86;1743144;81;25606;-75
2022/03/13 10:09:38;;;;;;;15.80;11.50;;;;;;;20.17;21.16;101541.16;1749404;81;25944;-76
2022/03/13 10:12:12;;;;;;;16.25;12.73;;;;;;;20.00;21.46;101549.05;1756408;81;25765;-76
2022/03/13 10:14:58;;;;;;;18.70;14.07;;;;;;;19.95;21.45;101541.83;1756244;81;27027;-75
2022/03/13 10:17:33;;;;;;;21.12;15.23;;;;;;;20.06;21.64;101540.83;1713322;83;25685;-74
2022/03/13 10:20:25;;;;;;;19.87;14.98;;;;;;;20.02;21.40;101537.94;1688953;83;25744;-76
2022/03/13 10:23:10;;;;;;;19.77;14.18;;;;;;;20.19;21.72;101536.91;1713444;83;25940;-76
2022/03/13 10:25:41;;;;;;;19.62;14.53;;;;;;;20.42;21.63;101541.94;1713499;83;25675;-75
2022/03/13 10:28:18;;;;;;;21.73;14.83;;;;;;;20.55;21.41;101542.16;1713276;83;27448;-77
2022/03/13 10:30:50;;;;;;;20.15;14.50;;;;;;;20.62;21.30;101536.04;1726287;80;30296;-76
2022/03/13 10:33:17;;;;;;;18.85;13.68;;;;;;;20.73;21.17;101533.66;1733818;82;25657;-75
2022/03/13 10:35:44;;;;;;;17.67;13.35;;;;;;;20.81;21.29;101545.88;1740968;82;25924;-75
2022/03/13 10:38:20;;;;;;;19.52;13.98;;;;;;;20.91;21.19;101541.84;1740954;81;25846;-75
2022/03/13 10:40:51;;;;;;;18.50;12.88;;;;;;;21.10;21.06;101537.66;1717710;82;27509;-76
2022/03/13 10:43:22;;;;;;;21.12;15.65;;;;;;;21.17;20.78;101531.76;1741059;82;25652;-76
2022/03/13 10:45:53;;;;;;;16.03;12.53;;;;;;;21.21;20.68;101525.77;1703162;84;25415;-75
2022/03/13 10:48:28;;;;;;;18.80;13.28;;;;;;;21.09;20.57;101525.83;1703310;84;26735;-76
2022/03/13 10:51:12;;;;;;;20.05;13.98;;;;;;;21.06;20.81;101524.59;1704413;84;25696;-77
2022/03/13 10:53:40;;;;;;;18.55;13.80;;;;;;;;;;1593684;89;26033;-76
2022/03/13 10:56:13;;;;;;;19.05;12.53;;;;;;;21.40;20.80;101525.11;1570409;91;25597;-77
2022/03/13 10:58:44;;;;;;;19.42;13.53;;;;;;;21.54;20.37;101525.27;1570314;91;25823;-75
2022/03/13 11:01:16;;;;;;;16.55;12.55;;;;;;;21.46;20.75;101528.39;1594567;87;26526;-76
2022/03/13 11:03:57;;;;;;;19.27;12.98;;;;;;;21.37;20.16;101529.94;1589325;90;25701;-76
2022/03/13 11:06:26;;;;;;;21.87;14.53;;;;;;;21.37;20.40;101529.15;1563379;91;27971;-76
2022/03/13 11:08:55;;;;;;;;;;;;;;;21.06;19.94;101519.66;1602820;88;25688;-75
2022/03/13 11:11:26;;;;;;;21.05;14.55;;;;;;;20.76;20.09;101528.26;1622558;88;25575;-75
2022/03/13 11:13:56;;;;;;;19.05;14.07;;;;;;;20.62;20.59;101523.15;1622156;88;27357;-75